createdAt,value
2023-01-08T00:02:00.035Z,9.00
2023-01-08T00:04:26.700Z,12.75
2023-01-08T00:06:53.221Z,12.00
2023-01-08T00:09:19.743Z,10.50
2023-01-08T00:11:46.854Z,10.00
2023-01-08T00:14:13.353Z,11.00
2023-01-08T00:16:39.977Z,11.80
2023-01-08T00:19:06.457Z,9.50
2023-01-08T00:21:33.023Z,12.00
2023-01-08T00:23:59.551Z,14.60
2023-01-08T00:26:26.003Z,10.60
2023-01-08T00:28:52.492Z,9.40
2023-01-08T00:31:19.018Z,11.50
2023-01-08T00:33:45.582Z,9.00
2023-01-08T00:36:18.585Z,7.75
2023-01-08T00:38:45.607Z,14.00
2023-01-08T00:41:12.750Z,9.60
2023-01-08T00:43:39.225Z,9.25
2023-01-08T00:46:06.315Z,10.40
2023-01-08T00:48:33.721Z,7.40
2023-01-08T00:51:01.553Z,8.40
2023-01-08T00:53:28.009Z,11.25
2023-01-08T00:56:04.996Z,10.00
2023-01-08T00:58:31.822Z,10.00
2023-01-08T01:00:58.368Z,8.00
2023-01-08T01:03:24.967Z,11.40
2023-01-08T01:05:59.722Z,9.40
2023-01-08T01:08:26.147Z,9.60
2023-01-08T01:10:52.643Z,9.00
2023-01-08T01:13:19.128Z,10.20
2023-01-08T01:15:45.796Z,8.75
2023-01-08T01:18:13.367Z,11.25
2023-01-08T01:20:39.820Z,8.60
2023-01-08T01:23:06.286Z,13.60
2023-01-08T01:25:36.659Z,10.00
2023-01-08T01:28:03.152Z,10.50
2023-01-08T01:30:29.636Z,9.00
2023-01-08T01:32:56.093Z,9.50
2023-01-08T01:35:22.565Z,8.00
2023-01-08T01:37:48.993Z,8.00
2023-01-08T01:40:15.516Z,10.40
2023-01-08T01:42:42.019Z,10.40
2023-01-08T01:45:25.453Z,11.50
2023-01-08T01:47:55.494Z,10.00
2023-01-08T01:50:25.592Z,9.80
2023-01-08T01:53:01.187Z,12.20
2023-01-08T01:55:27.929Z,9.40
2023-01-08T01:58:04.901Z,9.67
2023-01-08T02:00:32.826Z,12.00
2023-01-08T02:02:59.731Z,11.60
2023-01-08T02:05:29.700Z,12.33
2023-01-08T02:07:59.167Z,13.40
2023-01-08T02:10:32.329Z,12.00
2023-01-08T02:13:01.470Z,14.00
2023-01-08T02:15:43.325Z,11.50
2023-01-08T02:18:09.801Z,11.75
2023-01-08T02:20:55.420Z,10.00
2023-01-08T02:23:42.177Z,14.25
2023-01-08T02:26:17.770Z,14.00
2023-01-08T02:28:55.212Z,14.80
2023-01-08T02:31:22.636Z,13.80
2023-01-08T02:33:49.120Z,15.40
2023-01-08T02:36:21.979Z,10.60
2023-01-08T02:38:54.401Z,11.00
2023-01-08T02:41:24.735Z,12.20
2023-01-08T02:43:53.874Z,13.80
2023-01-08T02:46:26.961Z,13.60
2023-01-08T02:48:57.095Z,11.40
2023-01-08T02:51:24.198Z,12.60
2023-01-08T02:53:53.587Z,13.00
2023-01-08T02:56:41.672Z,13.75
2023-01-08T02:59:11.250Z,17.50
2023-01-08T03:01:38.785Z,14.20
2023-01-08T03:04:08.168Z,12.20
2023-01-08T03:06:34.890Z,13.25
2023-01-08T03:09:01.695Z,13.20
2023-01-08T03:11:32.004Z,11.80
2023-01-08T03:14:09.307Z,16.00
2023-01-08T03:16:38.155Z,11.40
2023-01-08T03:19:09.887Z,11.60
2023-01-08T03:21:37.811Z,13.00
2023-01-08T03:24:04.812Z,16.40
2023-01-08T03:26:32.860Z,10.00
2023-01-08T03:28:59.553Z,10.50
2023-01-08T03:31:27.412Z,17.75
2023-01-08T03:33:54.479Z,10.60
2023-01-08T03:36:30.989Z,9.40
2023-01-08T03:39:04.653Z,9.60
2023-01-08T03:41:32.915Z,10.60
2023-01-08T03:43:59.376Z,15.00
2023-01-08T03:46:31.971Z,10.00
2023-01-08T03:48:59.793Z,11.00
2023-01-08T03:51:26.303Z,11.50
2023-01-08T03:53:54.497Z,13.80
2023-01-08T03:56:20.978Z,10.25
2023-01-08T03:58:47.457Z,12.40
2023-01-08T04:01:14.279Z,13.00
2023-01-08T04:03:40.860Z,9.50
2023-01-08T04:06:07.358Z,11.40
2023-01-08T04:08:33.849Z,10.00
2023-01-08T04:11:00.352Z,7.60
2023-01-08T04:13:26.829Z,8.00
2023-01-08T04:15:53.317Z,9.20
2023-01-08T04:18:19.879Z,10.40
2023-01-08T04:20:47.259Z,10.80
2023-01-08T04:23:14.043Z,9.00
2023-01-08T04:25:40.795Z,10.60
2023-01-08T04:28:07.267Z,10.80
2023-01-08T04:30:33.717Z,11.33
2023-01-08T04:33:00.220Z,12.80
2023-01-08T04:35:26.717Z,11.00
2023-01-08T04:37:53.188Z,13.80
2023-01-08T04:40:19.655Z,14.40
2023-01-08T04:42:46.173Z,12.40
2023-01-08T04:45:12.618Z,13.80
2023-01-08T04:47:39.098Z,15.00
2023-01-08T04:50:05.868Z,12.00
2023-01-08T04:52:32.320Z,13.33
2023-01-08T04:54:58.810Z,13.20
2023-01-08T04:57:25.312Z,15.75
2023-01-08T04:59:51.787Z,13.00
2023-01-08T05:02:18.543Z,14.00
2023-01-08T05:04:45.135Z,14.20
2023-01-08T05:07:11.669Z,19.00
2023-01-08T05:09:38.133Z,13.00
2023-01-08T05:12:04.768Z,16.25
2023-01-08T05:14:31.187Z,20.50
2023-01-08T05:16:57.758Z,15.67
2023-01-08T05:19:24.232Z,18.20
2023-01-08T05:21:50.687Z,20.60
2023-01-08T05:24:17.213Z,16.40
2023-01-08T05:26:43.675Z,17.00
2023-01-08T05:29:10.466Z,18.00
2023-01-08T05:31:36.934Z,20.25
2023-01-08T05:34:03.348Z,15.40
2023-01-08T05:36:31.178Z,25.00
2023-01-08T05:38:57.670Z,18.60
2023-01-08T05:41:24.133Z,23.50
2023-01-08T05:43:50.565Z,13.60
2023-01-08T05:46:17.034Z,14.40
2023-01-08T05:48:43.469Z,17.75
2023-01-08T05:51:10.075Z,21.25
2023-01-08T05:53:36.657Z,22.80
2023-01-08T05:56:04.566Z,21.50
2023-01-08T05:58:31.141Z,19.00
2023-01-08T06:01:08.222Z,16.80
2023-01-08T06:03:34.776Z,17.80
2023-01-08T06:06:01.920Z,23.60
2023-01-08T06:08:29.475Z,18.75
2023-01-08T06:10:59.614Z,22.40
2023-01-08T06:13:26.075Z,25.50
2023-01-08T06:15:52.583Z,26.50
2023-01-08T06:18:19.218Z,16.20
2023-01-08T06:20:45.794Z,20.25
2023-01-08T06:23:12.624Z,21.25
2023-01-08T06:25:39.112Z,20.25
2023-01-08T06:28:05.619Z,17.00
2023-01-08T06:30:32.218Z,18.75
2023-01-08T06:32:59.298Z,18.00
2023-01-08T06:35:26.170Z,18.00
2023-01-08T06:37:54.321Z,21.50
2023-01-08T06:40:20.836Z,15.50
2023-01-08T06:42:47.326Z,21.50
2023-01-08T06:45:13.806Z,16.00
2023-01-08T06:47:40.367Z,21.25
2023-01-08T06:50:07.045Z,18.00
2023-01-08T06:52:33.501Z,17.00
2023-01-08T06:54:59.946Z,14.25
2023-01-08T06:57:26.389Z,24.60
2023-01-08T06:59:52.840Z,21.50
2023-01-08T07:02:19.803Z,14.50
2023-01-08T07:04:46.468Z,22.75
2023-01-08T07:07:14.128Z,20.60
2023-01-08T07:09:43.801Z,16.00
2023-01-08T07:12:14.051Z,13.00
2023-01-08T07:14:41.056Z,18.25
2023-01-08T07:17:07.579Z,13.00
2023-01-08T07:19:34.559Z,21.60
2023-01-08T07:22:01.051Z,20.25
2023-01-08T07:24:27.540Z,18.00
2023-01-08T07:26:53.991Z,20.50
2023-01-08T07:29:20.423Z,16.20
2023-01-08T07:31:46.913Z,22.00
2023-01-08T07:34:15.248Z,17.00
2023-01-08T07:36:41.852Z,19.50
2023-01-08T07:39:08.343Z,20.50
2023-01-08T07:41:34.811Z,21.75
2023-01-08T07:44:01.409Z,18.00
2023-01-08T07:46:28.012Z,23.00
2023-01-08T07:48:55.681Z,17.00
2023-01-08T07:51:22.414Z,15.00
2023-01-08T07:53:48.925Z,23.25
2023-01-08T07:56:15.432Z,21.40
2023-01-08T07:58:42.058Z,20.75
2023-01-08T08:01:10.297Z,21.20
2023-01-08T08:03:38.053Z,15.00
2023-01-08T08:06:04.862Z,17.40
2023-01-08T08:08:31.346Z,20.60
2023-01-08T08:10:57.844Z,19.00
2023-01-08T08:13:24.270Z,17.50
2023-01-08T08:15:50.769Z,22.60
2023-01-08T08:18:17.531Z,21.20
2023-01-08T08:20:44.012Z,17.25
2023-01-08T08:23:13.801Z,20.00
2023-01-08T08:25:41.228Z,18.00
2023-01-08T08:28:08.053Z,15.80
2023-01-08T08:30:35.476Z,20.50
2023-01-08T08:33:03.798Z,17.00
2023-01-08T08:35:30.784Z,21.00
2023-01-08T08:37:57.601Z,16.00
2023-01-08T08:40:24.639Z,15.50
2023-01-08T08:42:57.921Z,13.50
2023-01-08T08:45:24.677Z,20.00
2023-01-08T08:47:51.131Z,13.00
2023-01-08T08:50:18.323Z,14.00
2023-01-08T08:52:45.896Z,13.00
2023-01-08T08:55:17.183Z,14.80
2023-01-08T08:57:47.128Z,14.60
2023-01-08T09:00:14.733Z,18.50
2023-01-08T09:02:41.339Z,15.00
2023-01-08T09:05:07.987Z,17.60
2023-01-08T09:07:34.615Z,19.50
2023-01-08T09:10:01.095Z,16.00
2023-01-08T09:12:27.584Z,13.20
2023-01-08T09:14:54.921Z,19.00
2023-01-08T09:17:21.678Z,16.00
2023-01-08T09:19:48.391Z,19.40
2023-01-08T09:22:14.914Z,18.00
2023-01-08T09:24:41.400Z,11.20
2023-01-08T09:27:10.246Z,14.60
2023-01-08T09:29:37.568Z,14.00
2023-01-08T09:32:06.986Z,16.20
2023-01-08T09:34:33.640Z,13.00
2023-01-08T09:37:00.119Z,12.75
2023-01-08T09:39:26.583Z,14.00
2023-01-08T09:41:53.987Z,11.00
2023-01-08T09:44:22.874Z,11.25
2023-01-08T09:46:49.848Z,10.00
2023-01-08T09:49:21.587Z,11.20
2023-01-08T09:51:48.289Z,10.20
2023-01-08T09:54:15.648Z,12.00
2023-01-08T09:56:42.461Z,11.40
2023-01-08T09:59:11.845Z,13.00
2023-01-08T10:01:39.537Z,12.00
2023-01-08T10:04:06.225Z,14.00
2023-01-08T10:06:32.803Z,11.00
2023-01-08T10:08:59.652Z,10.50
2023-01-08T10:11:28.461Z,13.00
2023-01-08T10:13:56.293Z,13.67
2023-01-08T10:16:26.920Z,11.00
2023-01-08T10:18:53.453Z,10.00
2023-01-08T10:21:20.314Z,15.50
2023-01-08T10:23:51.146Z,11.00
2023-01-08T10:26:31.486Z,12.25
2023-01-08T10:29:18.196Z,11.50
2023-01-08T10:31:46.408Z,9.50
2023-01-08T10:34:18.986Z,12.00
2023-01-08T10:36:45.488Z,10.20
2023-01-08T10:39:21.280Z,10.60
2023-01-08T10:41:48.798Z,8.00
2023-01-08T10:44:16.835Z,12.00
2023-01-08T10:46:43.324Z,9.75
2023-01-08T10:49:18.444Z,8.75
2023-01-08T10:51:52.336Z,11.60
2023-01-08T10:54:32.902Z,10.60
2023-01-08T10:57:02.304Z,10.25
2023-01-08T10:59:29.155Z,12.50
2023-01-08T11:01:57.309Z,11.00
2023-01-08T11:04:29.500Z,12.00
2023-01-08T11:06:59.784Z,11.00
2023-01-08T11:09:31.112Z,11.50
2023-01-08T11:11:57.987Z,15.50
2023-01-08T11:14:26.972Z,13.60
2023-01-08T11:16:54.072Z,14.00
2023-01-08T11:19:24.227Z,15.00
2023-01-08T11:21:58.459Z,11.50
2023-01-08T11:24:27.068Z,13.00
2023-01-08T11:26:54.752Z,13.00
2023-01-08T11:29:24.657Z,17.60
2023-01-08T11:32:03.493Z,10.80
2023-01-08T11:34:48.056Z,12.00
2023-01-08T11:37:18.920Z,14.00
2023-01-08T11:39:45.623Z,10.60
2023-01-08T11:42:30.865Z,12.20
2023-01-08T11:44:57.383Z,12.00
2023-01-08T11:47:26.579Z,15.75
2023-01-08T11:50:01.676Z,12.75
2023-01-08T11:52:31.269Z,12.00
2023-01-08T11:55:00.712Z,12.60
2023-01-08T11:57:44.696Z,13.00
2023-01-08T12:00:17.088Z,11.00
2023-01-08T12:02:55.078Z,11.60
2023-01-08T12:05:36.743Z,13.00
2023-01-08T12:08:26.254Z,13.00
2023-01-08T12:11:02.852Z,19.80
2023-01-08T12:13:29.363Z,18.00
2023-01-08T12:15:58.616Z,13.75
2023-01-08T12:18:40.391Z,14.00
2023-01-08T12:21:19.144Z,13.00
2023-01-08T12:24:04.504Z,13.60
2023-01-08T12:26:51.199Z,15.40
2023-01-08T12:29:22.558Z,14.50
2023-01-08T12:32:01.860Z,16.60
2023-01-08T12:34:41.533Z,13.00
2023-01-08T12:37:24.592Z,15.00
2023-01-08T12:39:56.831Z,16.60
2023-01-08T12:42:28.297Z,15.50
2023-01-08T12:44:55.726Z,14.00
2023-01-08T12:47:25.736Z,16.40
2023-01-08T12:50:18.243Z,17.80
2023-01-08T12:52:44.694Z,13.50
2023-01-08T12:55:21.379Z,15.80
2023-01-08T12:57:51.946Z,11.25
2023-01-08T13:00:21.251Z,14.00
2023-01-08T13:02:47.746Z,11.60
2023-01-08T13:05:34.551Z,14.00
2023-01-08T13:08:04.069Z,12.60
2023-01-08T13:10:49.849Z,13.33
2023-01-08T13:13:27.338Z,13.00
2023-01-08T13:15:53.962Z,15.00
2023-01-08T13:18:21.100Z,13.50
2023-01-08T13:20:57.666Z,13.75
2023-01-08T13:23:25.959Z,15.00
2023-01-08T13:25:54.896Z,11.00
2023-01-08T13:28:31.605Z,12.75
2023-01-08T13:31:08.040Z,14.00
2023-01-08T13:33:34.564Z,12.00
2023-01-08T13:36:13.254Z,14.25
2023-01-08T13:38:41.652Z,12.40
2023-01-08T13:41:31.110Z,13.00
2023-01-08T13:44:02.136Z,15.25
2023-01-08T13:46:29.103Z,14.00
2023-01-08T13:48:55.512Z,12.00
2023-01-08T13:51:47.984Z,42.50
2023-01-08T13:54:17.120Z,13.00
2023-01-08T13:56:44.844Z,18.00
2023-01-08T13:59:20.774Z,20.75
2023-01-08T14:01:57.515Z,22.75
2023-01-08T14:04:24.327Z,17.00
2023-01-08T14:06:50.986Z,17.00
2023-01-08T14:09:24.703Z,15.25
2023-01-08T14:11:55.999Z,15.40
2023-01-08T14:14:24.006Z,41.00
2023-01-08T14:16:51.867Z,13.50
2023-01-08T14:19:20.393Z,17.40
2023-01-08T14:21:51.500Z,13.40
2023-01-08T14:24:19.066Z,12.00
2023-01-08T14:26:51.272Z,12.40
2023-01-08T14:29:20.368Z,12.00
2023-01-08T14:31:48.008Z,13.00
2023-01-08T14:34:14.783Z,10.80
2023-01-08T14:36:42.554Z,10.25
2023-01-08T14:39:12.661Z,12.40
2023-01-08T14:42:00.427Z,10.80
2023-01-08T14:44:36.582Z,14.00
2023-01-08T14:47:06.155Z,9.80
2023-01-08T14:49:34.449Z,11.00
2023-01-08T14:52:02.641Z,8.60
2023-01-08T14:54:31.525Z,12.00
2023-01-08T14:57:00.928Z,11.50
2023-01-08T14:59:34.758Z,8.40
2023-01-08T15:02:02.722Z,11.00
2023-01-08T15:04:30.048Z,12.00
2023-01-08T15:07:16.408Z,11.50
2023-01-08T15:09:42.816Z,11.00
2023-01-08T15:12:29.086Z,17.80
2023-01-08T15:14:55.653Z,16.00
2023-01-08T15:17:23.656Z,13.50
2023-01-08T15:19:54.850Z,12.00
2023-01-08T15:22:26.081Z,15.00
2023-01-08T15:24:58.296Z,11.00
2023-01-08T15:27:25.248Z,18.00
2023-01-08T15:29:53.082Z,18.00
2023-01-08T15:32:24.009Z,19.00
2023-01-08T15:34:50.817Z,15.60
2023-01-08T15:37:17.284Z,21.50
2023-01-08T15:39:43.828Z,20.00
2023-01-08T15:42:28.643Z,18.00
2023-01-08T15:44:55.090Z,22.00
2023-01-08T15:47:21.552Z,18.00
2023-01-08T15:49:47.982Z,16.00
2023-01-08T15:52:23.379Z,17.00
2023-01-08T15:54:50.008Z,15.00
2023-01-08T15:57:16.553Z,22.20
2023-01-08T15:59:42.987Z,19.25
2023-01-08T16:02:12.619Z,19.00
2023-01-08T16:04:39.232Z,17.60
2023-01-08T16:07:05.689Z,15.25
2023-01-08T16:09:32.155Z,18.80
2023-01-08T16:11:58.634Z,17.75
2023-01-08T16:14:25.164Z,19.60
2023-01-08T16:16:51.623Z,17.80
2023-01-08T16:19:18.126Z,28.00
2023-01-08T16:21:47.216Z,15.75
2023-01-08T16:24:13.987Z,19.33
2023-01-08T16:26:40.431Z,21.60
2023-01-08T16:29:06.887Z,22.60
2023-01-08T16:31:33.398Z,24.75
2023-01-08T16:34:03.135Z,22.00
2023-01-08T16:36:29.677Z,23.50
2023-01-08T16:38:56.095Z,22.50
2023-01-08T16:41:22.559Z,22.40
2023-01-08T16:43:49.192Z,24.40
2023-01-08T16:46:18.049Z,29.00
2023-01-08T16:48:44.748Z,27.25
2023-01-08T16:51:11.661Z,21.25
2023-01-08T16:53:38.180Z,26.75
2023-01-08T16:56:05.077Z,26.75
2023-01-08T16:58:31.860Z,18.50
2023-01-08T17:00:58.627Z,16.40
2023-01-08T17:03:25.117Z,24.20
2023-01-08T17:05:51.598Z,27.00
2023-01-08T17:08:20.025Z,24.00
2023-01-08T17:10:46.878Z,24.00
2023-01-08T17:13:13.416Z,25.50
2023-01-08T17:15:40.263Z,30.40
2023-01-08T17:18:06.736Z,25.50
2023-01-08T17:20:33.227Z,24.40
2023-01-08T17:23:01.716Z,30.00
2023-01-08T17:25:28.267Z,31.00
2023-01-08T17:27:54.748Z,32.00
2023-01-08T17:30:21.309Z,37.60
2023-01-08T17:32:47.744Z,29.00
2023-01-08T17:35:14.221Z,30.00
2023-01-08T17:37:40.799Z,32.00
2023-01-08T17:40:07.716Z,30.75
2023-01-08T17:42:34.332Z,27.75
2023-01-08T17:45:03.066Z,32.00
2023-01-08T17:47:30.768Z,30.50
2023-01-08T17:49:57.732Z,25.40
2023-01-08T17:52:25.082Z,22.00
2023-01-08T17:54:52.338Z,16.60
2023-01-08T17:57:19.540Z,28.00
2023-01-08T17:59:46.418Z,30.00
2023-01-08T18:02:15.915Z,31.60
2023-01-08T18:04:43.159Z,29.60
2023-01-08T18:07:10.184Z,25.25
2023-01-08T18:09:36.958Z,31.33
2023-01-08T18:12:03.528Z,30.50
2023-01-08T18:14:30.037Z,28.67
2023-01-08T18:16:56.706Z,23.20
2023-01-08T18:19:23.135Z,21.80
2023-01-08T18:21:49.589Z,28.00
2023-01-08T18:24:16.177Z,22.40
2023-01-08T18:26:42.982Z,26.33
2023-01-08T18:29:09.536Z,23.60
2023-01-08T18:31:36.149Z,27.80
2023-01-08T18:34:03.868Z,20.60
2023-01-08T18:36:30.484Z,22.60
2023-01-08T18:38:57.650Z,20.00
2023-01-08T18:42:02.399Z,27.50
2023-01-08T18:44:29.040Z,22.20
2023-01-08T18:46:56.057Z,20.75
2023-01-08T18:49:23.581Z,20.00
2023-01-08T18:51:50.228Z,17.60
2023-01-08T18:54:16.714Z,19.40
2023-01-08T18:56:43.223Z,21.25
2023-01-08T18:59:10.555Z,28.00
2023-01-08T19:01:37.130Z,44.00
2023-01-08T19:04:04.108Z,58.50
2023-01-08T19:06:30.877Z,58.00
2023-01-08T19:08:57.923Z,73.25
2023-01-08T19:11:24.670Z,80.25
2023-01-08T19:13:53.806Z,76.80
2023-01-08T19:16:20.925Z,78.00
2023-01-08T19:18:47.445Z,81.75
2023-01-08T19:21:19.176Z,96.60
2023-01-08T19:23:46.666Z,76.60
2023-01-08T19:26:14.598Z,91.40
2023-01-08T19:28:42.022Z,66.60
2023-01-08T19:31:12.165Z,64.25
2023-01-08T19:33:38.780Z,63.25
2023-01-08T19:36:12.523Z,51.00
2023-01-08T19:38:39.853Z,50.60
2023-01-08T19:41:26.911Z,34.25
2023-01-08T19:43:54.415Z,40.00
2023-01-08T19:46:21.010Z,35.40
2023-01-08T19:48:47.859Z,33.75
2023-01-08T19:51:14.749Z,58.25
2023-01-08T19:53:41.353Z,55.00
2023-01-08T19:56:09.234Z,48.00
2023-01-08T19:58:36.248Z,38.00
2023-01-08T20:01:08.425Z,37.20
2023-01-08T20:03:34.883Z,31.50
2023-01-08T20:06:04.660Z,37.40
2023-01-08T20:08:31.905Z,39.80
2023-01-08T20:11:04.435Z,61.00
2023-01-08T20:13:33.983Z,63.50
2023-01-08T20:16:00.653Z,72.40
2023-01-08T20:18:27.202Z,65.60
2023-01-08T20:20:53.685Z,54.80
2023-01-08T20:23:21.054Z,49.20
2023-01-08T20:25:47.573Z,54.75
2023-01-08T20:28:14.073Z,51.75
2023-01-08T20:30:40.498Z,44.00
2023-01-08T20:33:07.004Z,36.00
2023-01-08T20:35:36.093Z,34.00
2023-01-08T20:38:02.633Z,33.75
2023-01-08T20:40:29.064Z,35.60
2023-01-08T20:42:55.608Z,38.00
2023-01-08T20:45:22.126Z,33.40
2023-01-08T20:47:48.662Z,42.00
2023-01-08T20:50:20.090Z,50.00
2023-01-08T20:52:47.105Z,48.50
2023-01-08T20:55:13.634Z,49.75
2023-01-08T20:57:40.205Z,51.75
2023-01-08T21:00:07.042Z,60.00
2023-01-08T21:02:33.555Z,70.75
2023-01-08T21:05:00.068Z,63.80
2023-01-08T21:07:29.831Z,53.75
2023-01-08T21:09:56.533Z,44.50
2023-01-08T21:12:23.046Z,46.40
2023-01-08T21:14:49.573Z,47.00
2023-01-08T21:17:16.046Z,50.50
2023-01-08T21:19:43.149Z,51.40
2023-01-08T21:22:09.759Z,51.50
2023-01-08T21:24:36.340Z,57.00
2023-01-08T21:27:03.638Z,64.00
2023-01-08T21:29:30.068Z,55.75
2023-01-08T21:31:56.587Z,56.50
2023-01-08T21:34:23.164Z,53.50
2023-01-08T21:36:49.692Z,57.33
2023-01-08T21:39:16.183Z,67.00
2023-01-08T21:42:01.107Z,72.25
2023-01-08T21:44:46.328Z,52.50
2023-01-08T21:47:14.583Z,49.75
2023-01-08T21:49:41.403Z,48.75
2023-01-08T21:52:26.342Z,50.00
2023-01-08T21:54:53.035Z,50.50
2023-01-08T21:57:19.795Z,55.50
2023-01-08T21:59:49.008Z,54.50
2023-01-08T22:02:16.730Z,57.50
2023-01-08T22:04:43.566Z,55.80
2023-01-08T22:07:10.358Z,47.00
2023-01-08T22:09:36.887Z,40.00
2023-01-08T22:12:03.389Z,40.00
2023-01-08T22:14:29.895Z,37.25
2023-01-08T22:16:56.330Z,33.00
2023-01-08T22:19:22.791Z,36.00
2023-01-08T22:21:49.357Z,32.50
2023-01-08T22:24:15.887Z,34.60
2023-01-08T22:26:42.320Z,34.75
2023-01-08T22:29:09.040Z,35.00
2023-01-08T22:31:35.508Z,36.75
2023-01-08T22:34:01.983Z,38.50
2023-01-08T22:36:28.583Z,36.75
2023-01-08T22:38:55.113Z,37.60
2023-01-08T22:41:22.868Z,35.25
2023-01-08T22:43:52.972Z,32.25
2023-01-08T22:46:19.475Z,32.20
2023-01-08T22:48:45.978Z,35.80
2023-01-08T22:51:12.447Z,33.75
2023-01-08T22:53:38.985Z,33.00
2023-01-08T22:56:10.576Z,33.40
2023-01-08T22:58:37.186Z,32.20
2023-01-08T23:01:03.656Z,37.00
2023-01-08T23:03:30.150Z,37.33
2023-01-08T23:06:03.385Z,36.50
2023-01-08T23:08:29.824Z,34.50
2023-01-08T23:10:57.422Z,32.33
2023-01-08T23:13:24.067Z,33.40
2023-01-08T23:15:50.563Z,33.00
2023-01-08T23:18:17.116Z,32.25
2023-01-08T23:20:43.607Z,29.00
2023-01-08T23:23:10.104Z,28.00
2023-01-08T23:25:36.529Z,29.00
2023-01-08T23:28:03.067Z,30.60
2023-01-08T23:30:31.608Z,30.25
2023-01-08T23:32:58.314Z,28.50
2023-01-08T23:35:25.132Z,30.00
2023-01-08T23:37:51.830Z,27.60
2023-01-08T23:40:18.866Z,30.80
2023-01-08T23:42:45.460Z,30.00
2023-01-08T23:45:11.958Z,32.00
2023-01-08T23:47:38.434Z,30.00
2023-01-08T23:50:05.032Z,29.00
2023-01-08T23:52:31.544Z,26.00
2023-01-08T23:54:57.987Z,25.00
2023-01-08T23:57:24.464Z,29.00
2023-01-08T23:59:51.006Z,27.00
